Time;durP1;ratioP1;P1;durP2;ratioP2;P2;SDS_P1;SDS_P2;PMS_P1;PMS_P2;Temp;Humidity;BMP_temperature;BMP_pressure;BME280_temperature;BME280_humidity;BME280_pressure;Samples;Min_cycle;Max_cycle;Signal;HPM_P1;HPM_P2
2022/03/05 00:00:32;;;;;;;;;3.00;3.00;;;;;;;;5097814;27;45466;-75
2022/03/05 00:02:58;;;;;;;;;4.75;3.75;;;;;;;;5079335;27;45363;-75
2022/03/05 00:05:23;;;;;;;;;2.75;2.75;;;;;;;;5100200;27;45410;-75
2022/03/05 00:07:49;;;;;;;;;3.25;3.25;;;;;;;;5097064;27;45443;-74
2022/03/05 00:10:14;;;;;;;;;2.00;2.00;;;;;;;;5097837;27;45681;-75
2022/03/05 00:12:39;;;;;;;;;4.00;4.00;;;;;;;;5097700;27;45559;-75
2022/03/05 00:15:05;;;;;;;;;3.00;3.00;;;;;;;;5097242;27;45390;-74
2022/03/05 00:17:31;;;;;;;;;4.00;4.00;;;;;;;;5097070;27;45521;-73
2022/03/05 00:19:56;;;;;;;;;3.00;3.00;;;;;;;;5097599;27;45384;-74
2022/03/05 00:22:21;;;;;;;;;3.00;3.00;;;;;;;;5097395;27;45429;-75
2022/03/05 00:24:46;;;;;;;;;3.25;3.25;;;;;;;;5097436;27;45329;-75
2022/03/05 00:27:12;;;;;;;;;3.50;3.50;;;;;;;;5096919;27;46328;-74
2022/03/05 00:29:37;;;;;;;;;3.00;3.00;;;;;;;;5096046;27;45428;-75
2022/03/05 00:32:02;;;;;;;;;1.75;1.75;;;;;;;;5097527;27;45408;-76
2022/03/05 00:34:28;;;;;;;;;2.33;2.33;;;;;;;;5103029;27;45526;-75
2022/03/05 00:36:53;;;;;;;;;5.00;3.25;;;;;;;;5096586;27;46567;-76
2022/03/05 00:39:18;;;;;;;;;3.50;3.50;;;;;;;;5097241;27;45244;-75
2022/03/05 00:41:43;;;;;;;;;3.50;3.50;;;;;;;;5097856;27;45635;-74
2022/03/05 00:44:09;;;;;;;;;2.00;2.00;;;;;;;;5098727;27;45458;-75
2022/03/05 00:46:34;;;;;;;;;3.00;3.00;;;;;;;;5096493;27;46151;-75
2022/03/05 00:48:59;;;;;;;;;3.00;3.00;;;;;;;;5096466;27;45305;-75
2022/03/05 00:51:25;;;;;;;;;3.25;3.25;;;;;;;;5096494;27;45210;-76
2022/03/05 00:53:50;;;;;;;;;3.00;2.25;;;;;;;;5096616;27;45558;-76
2022/03/05 00:56:15;;;;;;;;;2.50;2.50;;;;;;;;5098068;27;45593;-76
2022/03/05 00:58:40;;;;;;;;;3.00;3.00;;;;;;;;5097464;27;45562;-74
2022/03/05 01:01:05;;;;;;;;;3.75;3.75;;;;;;;;5096363;27;45585;-75
2022/03/05 01:03:31;;;;;;;;;3.00;3.00;;;;;;;;5080571;27;45293;-76
2022/03/05 01:05:56;;;;;;;;;2.75;2.75;;;;;;;;5096405;27;46171;-74
2022/03/05 01:08:21;;;;;;;;;3.50;2.75;;;;;;;;5097242;27;45374;-74
2022/03/05 01:10:46;;;;;;;;;2.00;2.00;;;;;;;;5096230;27;45536;-74
2022/03/05 01:13:12;;;;;;;;;3.00;3.00;;;;;;;;5096302;27;45441;-75
2022/03/05 01:15:37;;;;;;;;;2.00;2.00;;;;;;;;5096486;27;45445;-74
2022/03/05 01:18:02;;;;;;;;;3.75;3.00;;;;;;;;5096990;27;45410;-75
2022/03/05 01:20:28;;;;;;;;;2.75;2.75;;;;;;;;5096535;27;45625;-77
2022/03/05 01:22:53;;;;;;;;;3.00;3.00;;;;;;;;5098178;27;45540;-75
2022/03/05 01:25:18;;;;;;;;;3.00;3.00;;;;;;;;5096184;27;46311;-76
2022/03/05 01:27:44;;;;;;;;;6.00;4.25;;;;;;;;5096116;27;45294;-75
2022/03/05 01:30:09;;;;;;;;;2.00;2.00;;;;;;;;5080382;27;45284;-74
2022/03/05 01:32:34;;;;;;;;;3.25;3.25;;;;;;;;5110498;27;45410;-75
2022/03/05 01:35:00;;;;;;;;;2.00;2.00;;;;;;;;5096210;27;45479;-73
2022/03/05 01:37:25;;;;;;;;;2.00;2.00;;;;;;;;5096105;27;45305;-74
2022/03/05 01:39:50;;;;;;;;;2.00;2.00;;;;;;;;5095629;27;45259;-74
2022/03/05 01:42:19;;;;;;;;;4.50;3.00;;;;;;;;5096176;27;45395;-74
2022/03/05 01:44:44;;;;;;;;;2.25;2.25;;;;;;;;5096912;27;46249;-75
2022/03/05 01:47:10;;;;;;;;;2.00;2.00;;;;;;;;5099029;27;45462;-76
2022/03/05 01:49:35;;;;;;;;;3.00;3.00;;;;;;;;5095510;27;45812;-75
2022/03/05 01:52:00;;;;;;;;;5.00;3.00;;;;;;;;5096149;27;45680;-78
2022/03/05 01:54:26;;;;;;;;;3.00;3.00;;;;;;;;5095908;27;46754;-76
2022/03/05 01:56:51;;;;;;;;;2.50;2.50;;;;;;;;5077548;27;45544;-77
2022/03/05 01:59:17;;;;;;;;;4.25;3.00;;;;;;;;5096392;27;45351;-74
2022/03/05 02:01:42;;;;;;;;;4.00;4.00;;;;;;;;5076817;27;45486;-75
2022/03/05 02:04:07;;;;;;;;;2.00;2.00;;;;;;;;5095237;27;45596;-74
2022/03/05 02:06:32;;;;;;;;;3.00;3.00;;;;;;;;5095254;27;45483;-75
2022/03/05 02:08:58;;;;;;;;;2.50;2.50;;;;;;;;5095766;27;45495;-76
2022/03/05 02:11:24;;;;;;;;;3.00;3.00;;;;;;;;5078170;27;45467;-77
2022/03/05 02:13:49;;;;;;;;;4.00;4.00;;;;;;;;5095730;27;45509;-75
2022/03/05 02:16:14;;;;;;;;;3.00;3.00;;;;;;;;5095135;27;45536;-75
2022/03/05 02:18:44;;;;;;;;;3.50;3.00;;;;;;;;5095308;27;45532;-75
2022/03/05 02:21:09;;;;;;;;;2.50;2.50;;;;;;;;5095575;27;45359;-77
2022/03/05 02:23:34;;;;;;;;;3.00;3.00;;;;;;;;5094949;27;45469;-77
2022/03/05 02:26:01;;;;;;;;;3.00;3.00;;;;;;;;5077398;27;45412;-78
2022/03/05 02:28:26;;;;;;;;;3.75;3.75;;;;;;;;5091994;27;45524;-78
2022/03/05 02:30:52;;;;;;;;;2.00;2.00;;;;;;;;5097250;27;45747;-78
2022/03/05 02:33:18;;;;;;;;;3.00;2.00;;;;;;;;5095065;27;46797;-77
2022/03/05 02:35:43;;;;;;;;;0.50;0.00;;;;;;;;5095430;27;45515;-78
2022/03/05 02:38:10;;;;;;;;;4.00;4.00;;;;;;;;5107742;27;45386;-75
2022/03/05 02:40:36;;;;;;;;;10.50;9.75;;;;;;;;5097176;27;46632;-72
2022/03/05 02:43:01;;;;;;;;;5.25;4.75;;;;;;;;5094782;27;46380;-72
2022/03/05 02:45:26;;;;;;;;;5.75;5.75;;;;;;;;5095501;27;45410;-73
2022/03/05 02:47:51;;;;;;;;;4.00;4.00;;;;;;;;5095414;27;45495;-73
2022/03/05 02:50:16;;;;;;;;;3.00;3.00;;;;;;;;5095832;27;45562;-73
2022/03/05 02:52:42;;;;;;;;;3.75;3.75;;;;;;;;5094191;27;46112;-74
2022/03/05 02:55:07;;;;;;;;;5.00;5.00;;;;;;;;5094893;27;45359;-73
2022/03/05 02:57:32;;;;;;;;;6.50;4.50;;;;;;;;5095380;27;45530;-74
2022/03/05 02:59:57;;;;;;;;;4.00;4.00;;;;;;;;5095152;27;45261;-74
2022/03/05 03:02:23;;;;;;;;;5.25;5.25;;;;;;;;5079474;27;45340;-73
2022/03/05 03:04:48;;;;;;;;;4.00;3.25;;;;;;;;5094748;27;45511;-73
2022/03/05 03:07:13;;;;;;;;;4.25;4.25;;;;;;;;5095429;27;45355;-73
2022/03/05 03:09:39;;;;;;;;;3.00;3.00;;;;;;;;5093314;27;45406;-74
2022/03/05 03:12:04;;;;;;;;;5.00;3.50;;;;;;;;5079915;27;46164;-73
2022/03/05 03:14:29;;;;;;;;;4.00;3.75;;;;;;;;5095403;27;45371;-73
2022/03/05 03:16:54;;;;;;;;;4.00;4.00;;;;;;;;5095441;27;45319;-73
2022/03/05 03:19:20;;;;;;;;;6.00;6.00;;;;;;;;5095315;27;45527;-74
2022/03/05 03:21:46;;;;;;;;;6.50;4.75;;;;;;;;5095243;27;46655;-73
2022/03/05 03:24:11;;;;;;;;;6.75;5.00;;;;;;;;5095243;27;45400;-73
2022/03/05 03:26:36;;;;;;;;;3.50;3.50;;;;;;;;5094959;27;45322;-73
2022/03/05 03:29:01;;;;;;;;;5.00;5.00;;;;;;;;5095812;27;45215;-73
2022/03/05 03:31:27;;;;;;;;;2.75;2.75;;;;;;;;5094269;27;45573;-73
2022/03/05 03:33:52;;;;;;;;;4.25;4.25;;;;;;;;5094534;27;45405;-73
2022/03/05 03:36:17;;;;;;;;;3.50;3.50;;;;;;;;5110645;27;45473;-73
2022/03/05 03:38:42;;;;;;;;;3.75;3.75;;;;;;;;5094610;27;45606;-73
2022/03/05 03:41:08;;;;;;;;;5.00;4.00;;;;;;;;5095320;27;45458;-73
2022/03/05 03:43:34;;;;;;;;;3.00;3.00;;;;;;;;5084489;27;45494;-73
2022/03/05 03:45:59;;;;;;;;;4.50;4.00;;;;;;;;5086717;27;45361;-73
2022/03/05 03:48:24;;;;;;;;;3.25;3.25;;;;;;;;5094575;27;45483;-73
2022/03/05 03:50:50;;;;;;;;;3.00;3.00;;;;;;;;5094427;27;46214;-73
2022/03/05 03:53:16;;;;;;;;;5.00;5.00;;;;;;;;5105895;27;45494;-73
2022/03/05 03:55:41;;;;;;;;;5.25;4.50;;;;;;;;5093836;27;45483;-73
2022/03/05 03:58:06;;;;;;;;;4.00;4.00;;;;;;;;5094466;27;45413;-73
2022/03/05 04:00:31;;;;;;;;;4.00;4.00;;;;;;;;5096116;27;46147;-73
2022/03/05 04:02:56;;;;;;;;;3.00;3.00;;;;;;;;5094684;27;45564;-74
2022/03/05 04:05:22;;;;;;;;;5.50;4.50;;;;;;;;5098764;27;45322;-73
2022/03/05 04:10:31;;;;;;;;;3.50;3.50;;;;;;;;5097955;27;45744;-73
2022/03/05 04:12:56;;;;;;;;;3.50;3.50;;;;;;;;5097487;27;45365;-73
2022/03/05 04:15:22;;;;;;;;;3.00;3.00;;;;;;;;5099332;27;45599;-73
2022/03/05 04:17:47;;;;;;;;;3.00;3.00;;;;;;;;5097616;27;45339;-73
2022/03/05 04:20:12;;;;;;;;;5.75;3.75;;;;;;;;5098294;27;46871;-73
2022/03/05 04:22:37;;;;;;;;;4.25;4.25;;;;;;;;5098169;27;45512;-73
2022/03/05 04:25:03;;;;;;;;;5.00;4.00;;;;;;;;5092012;27;45434;-74
2022/03/05 04:27:28;;;;;;;;;3.75;3.75;;;;;;;;5086011;27;45667;-73
2022/03/05 04:29:53;;;;;;;;;4.75;4.75;;;;;;;;5097186;27;45543;-73
2022/03/05 04:32:18;;;;;;;;;3.75;3.75;;;;;;;;5101381;27;45392;-73
2022/03/05 04:34:44;;;;;;;;;6.50;3.25;;;;;;;;5078845;27;45629;-73
2022/03/05 04:37:09;;;;;;;;;3.25;3.25;;;;;;;;5079978;27;45277;-73
2022/03/05 04:39:34;;;;;;;;;3.75;3.75;;;;;;;;5097135;27;47048;-73
2022/03/05 04:41:59;;;;;;;;;4.00;4.00;;;;;;;;5097347;27;45554;-73
2022/03/05 04:44:25;;;;;;;;;3.50;3.00;;;;;;;;5101137;27;45430;-74
2022/03/05 04:46:50;;;;;;;;;4.00;4.00;;;;;;;;5113570;27;45364;-73
2022/03/05 04:49:15;;;;;;;;;3.00;3.00;;;;;;;;5096682;27;47051;-74
2022/03/05 04:51:40;;;;;;;;;3.75;3.50;;;;;;;;5105924;27;45550;-73
2022/03/05 04:54:06;;;;;;;;;3.25;3.25;;;;;;;;5097220;27;45457;-73
2022/03/05 04:56:31;;;;;;;;;3.25;3.00;;;;;;;;5097351;27;45262;-73
2022/03/05 04:58:56;;;;;;;;;4.00;4.00;;;;;;;;5097596;27;45977;-74
2022/03/05 05:01:21;;;;;;;;;3.50;3.50;;;;;;;;5089489;27;45348;-73
2022/03/05 05:03:47;;;;;;;;;5.00;5.00;;;;;;;;5087477;27;45454;-73
2022/03/05 05:06:12;;;;;;;;;5.75;5.00;;;;;;;;5097522;27;45363;-74
2022/03/05 05:08:38;;;;;;;;;4.25;4.00;;;;;;;;5096582;27;46130;-73
2022/03/05 05:11:03;;;;;;;;;4.75;4.75;;;;;;;;5084987;27;45484;-73
2022/03/05 05:13:28;;;;;;;;;3.75;3.00;;;;;;;;5090485;27;45558;-73
2022/03/05 05:15:53;;;;;;;;;3.75;3.75;;;;;;;;5093876;27;45498;-73
2022/03/05 05:18:18;;;;;;;;;3.50;3.50;;;;;;;;5096501;27;46283;-74
2022/03/05 05:20:44;;;;;;;;;5.00;4.00;;;;;;;;5096673;27;45318;-73
2022/03/05 05:23:09;;;;;;;;;5.50;5.00;;;;;;;;5097445;27;45292;-73
2022/03/05 05:25:34;;;;;;;;;3.00;3.00;;;;;;;;5097374;27;45346;-73
2022/03/05 05:27:59;;;;;;;;;3.00;3.00;;;;;;;;5096596;27;46488;-73
2022/03/05 05:30:25;;;;;;;;;3.25;3.25;;;;;;;;5099203;27;45893;-73
2022/03/05 05:32:50;;;;;;;;;3.50;3.50;;;;;;;;5097403;27;45446;-73
2022/03/05 05:35:15;;;;;;;;;2.50;2.50;;;;;;;;5097211;27;45462;-73
2022/03/05 05:37:41;;;;;;;;;3.50;3.50;;;;;;;;5098042;27;45454;-73
2022/03/05 05:40:06;;;;;;;;;4.00;3.00;;;;;;;;5099350;27;45417;-73
2022/03/05 05:42:31;;;;;;;;;3.50;3.50;;;;;;;;5097685;27;45484;-72
2022/03/05 05:44:57;;;;;;;;;4.25;4.25;;;;;;;;5096437;27;45361;-72
2022/03/05 05:47:22;;;;;;;;;3.50;3.50;;;;;;;;5097164;27;46638;-72
2022/03/05 05:49:47;;;;;;;;;4.00;2.75;;;;;;;;5077878;27;45863;-72
2022/03/05 05:52:12;;;;;;;;;2.00;2.00;;;;;;;;5096517;27;45391;-72
2022/03/05 05:54:38;;;;;;;;;3.75;3.75;;;;;;;;5096177;27;45445;-72
2022/03/05 05:57:03;;;;;;;;;2.75;2.75;;;;;;;;5095481;27;45522;-72
2022/03/05 05:59:28;;;;;;;;;2.75;2.75;;;;;;;;5096341;27;45346;-73
2022/03/05 06:01:54;;;;;;;;;3.00;3.00;;;;;;;;5083166;27;45351;-72
2022/03/05 06:04:19;;;;;;;;;4.25;3.00;;;;;;;;5093082;27;45273;-72
2022/03/05 06:06:44;;;;;;;;;2.00;2.00;;;;;;;;5099073;27;45302;-72
2022/03/05 06:09:09;;;;;;;;;2.50;2.25;;;;;;;;5096351;27;45623;-72
2022/03/05 06:11:35;;;;;;;;;2.25;2.25;;;;;;;;5095943;27;45369;-72
2022/03/05 06:14:00;;;;;;;;;2.50;2.50;;;;;;;;5097959;27;45330;-72
2022/03/05 06:16:25;;;;;;;;;2.00;2.00;;;;;;;;5097277;27;45966;-72
2022/03/05 06:18:51;;;;;;;;;3.00;3.00;;;;;;;;5096086;27;45377;-72
2022/03/05 06:21:16;;;;;;;;;2.00;1.50;;;;;;;;5095797;27;45646;-73
2022/03/05 06:23:41;;;;;;;;;3.50;2.75;;;;;;;;5095283;27;45492;-72
2022/03/05 06:26:06;;;;;;;;;2.25;2.25;;;;;;;;5095021;27;46283;-72
2022/03/05 06:28:32;;;;;;;;;2.00;2.00;;;;;;;;5095555;27;45445;-72
2022/03/05 06:30:57;;;;;;;;;2.25;2.25;;;;;;;;5095605;27;45297;-72
2022/03/05 06:33:22;;;;;;;;;2.00;2.00;;;;;;;;5095859;27;45405;-72
2022/03/05 06:35:48;;;;;;;;;2.00;2.00;;;;;;;;5094981;27;45472;-72
2022/03/05 06:38:13;;;;;;;;;2.00;2.00;;;;;;;;5096539;27;45383;-72
2022/03/05 06:40:38;;;;;;;;;2.00;2.00;;;;;;;;5095178;27;45326;-71
2022/03/05 06:43:04;;;;;;;;;4.25;3.00;;;;;;;;5095262;27;45449;-72
2022/03/05 06:45:29;;;;;;;;;2.25;2.25;;;;;;;;5094731;27;45428;-72
2022/03/05 06:47:54;;;;;;;;;2.25;2.25;;;;;;;;5096023;27;45515;-72
2022/03/05 06:50:20;;;;;;;;;3.25;3.25;;;;;;;;5096228;27;45330;-71
2022/03/05 06:52:45;;;;;;;;;2.00;2.00;;;;;;;;5095334;27;45518;-72
2022/03/05 06:55:15;;;;;;;;;3.25;2.00;;;;;;;;5094733;27;46490;-72
2022/03/05 06:57:43;;;;;;;;;2.00;2.00;;;;;;;;5095837;27;45211;-72
2022/03/05 07:00:09;;;;;;;;;1.50;1.50;;;;;;;;5096381;27;45478;-72
2022/03/05 07:02:34;;;;;;;;;2.00;2.00;;;;;;;;5097554;27;45426;-72
2022/03/05 07:05:00;;;;;;;;;3.25;2.00;;;;;;;;5095639;27;45408;-72
2022/03/05 07:07:25;;;;;;;;;1.25;1.25;;;;;;;;5095668;27;45506;-74
2022/03/05 07:09:51;;;;;;;;;3.25;2.00;;;;;;;;5094135;27;45271;-73
2022/03/05 07:12:16;;;;;;;;;2.00;2.00;;;;;;;;5095242;27;45378;-74
2022/03/05 07:14:44;;;;;;;;;1.75;1.75;;;;;;;;5094657;27;45393;-72
2022/03/05 07:17:09;;;;;;;;;2.50;2.50;;;;;;;;5095951;27;45457;-73
2022/03/05 07:19:35;;;;;;;;;2.50;2.00;;;;;;;;5102383;27;45329;-74
2022/03/05 07:22:00;;;;;;;;;2.00;2.00;;;;;;;;5102062;27;45549;-74
2022/03/05 07:24:25;;;;;;;;;1.50;1.50;;;;;;;;5094388;27;46466;-74
2022/03/05 07:26:50;;;;;;;;;2.00;2.00;;;;;;;;5078719;27;45489;-74
2022/03/05 07:29:15;;;;;;;;;2.25;2.25;;;;;;;;5095545;27;45275;-74
2022/03/05 07:31:41;;;;;;;;;4.00;1.00;;;;;;;;5095041;27;45536;-74
2022/03/05 07:34:06;;;;;;;;;2.00;2.00;;;;;;;;5098364;27;45522;-70
2022/03/05 07:36:31;;;;;;;;;4.00;2.50;;;;;;;;5095003;27;45830;-70
2022/03/05 07:38:56;;;;;;;;;2.00;2.00;;;;;;;;5098364;27;48518;-70
2022/03/05 07:41:22;;;;;;;;;2.75;2.75;;;;;;;;5101817;27;45474;-70
2022/03/05 07:43:47;;;;;;;;;1.00;1.00;;;;;;;;5098178;27;46069;-71
2022/03/05 07:46:12;;;;;;;;;3.75;2.00;;;;;;;;5097926;27;47036;-70
2022/03/05 07:48:37;;;;;;;;;1.00;1.00;;;;;;;;5098341;27;45341;-70
2022/03/05 07:51:03;;;;;;;;;3.75;3.25;;;;;;;;5105552;27;45455;-71
2022/03/05 07:53:31;;;;;;;;;1.50;1.50;;;;;;;;5098228;27;46147;-70
2022/03/05 07:55:57;;;;;;;;;2.75;2.00;;;;;;;;5098516;27;45358;-70
2022/03/05 07:58:22;;;;;;;;;0.25;0.25;;;;;;;;5090509;27;45403;-71
2022/03/05 08:00:47;;;;;;;;;1.75;1.75;;;;;;;;5092455;27;45514;-70
2022/03/05 08:03:13;;;;;;;;;1.25;1.25;;;;;;;;5098250;27;48949;-71
2022/03/05 08:05:38;;;;;;;;;1.50;1.50;;;;;;;;5097930;27;45643;-70
2022/03/05 08:08:03;;;;;;;;;2.75;2.25;;;;;;;;5098778;27;45338;-71
2022/03/05 08:10:29;;;;;;;;;1.00;1.00;;;;;;;;5098440;27;45554;-70
2022/03/05 08:12:54;;;;;;;;;1.00;1.00;;;;;;;;5098434;27;46008;-70
2022/03/05 08:15:19;;;;;;;;;1.00;1.00;;;;;;;;5098482;27;45558;-70
2022/03/05 08:17:55;;;;;;;;;3.00;2.00;;;;;;;;5098334;27;45263;-71
2022/03/05 08:20:21;;;;;;;;;1.25;1.00;;;;;;;;5099017;27;45504;-70
2022/03/05 08:22:46;;;;;;;;;1.00;1.00;;;;;;;;5097354;27;46103;-70
2022/03/05 08:25:12;;;;;;;;;1.00;1.00;;;;;;;;5079388;27;46022;-70
2022/03/05 08:27:37;;;;;;;;;1.00;1.00;;;;;;;;5097620;27;45506;-71
2022/03/05 08:30:03;;;;;;;;;1.00;1.00;;;;;;;;5098160;27;45433;-69
2022/03/05 08:32:28;;;;;;;;;0.00;0.00;;;;;;;;5097724;27;46217;-71
2022/03/05 08:34:54;;;;;;;;;1.00;1.00;;;;;;;;5097855;27;45345;-70
2022/03/05 08:37:19;;;;;;;;;1.00;1.00;;;;;;;;5097024;27;45374;-70
2022/03/05 08:39:44;;;;;;;;;1.25;1.25;;;;;;;;5097235;27;45466;-70
2022/03/05 08:42:09;;;;;;;;;1.00;1.00;;;;;;;;5097675;27;46296;-70
2022/03/05 08:44:34;;;;;;;;;1.50;1.50;;;;;;;;5096972;27;45399;-70
2022/03/05 08:47:00;;;;;;;;;1.00;1.00;;;;;;;;5108092;27;45408;-70
2022/03/05 08:49:25;;;;;;;;;1.00;1.00;;;;;;;;5099881;27;45321;-71
2022/03/05 08:51:50;;;;;;;;;1.25;1.25;;;;;;;;5096750;27;45488;-70
2022/03/05 08:54:17;;;;;;;;;3.00;1.75;;;;;;;;5097691;27;45543;-71
2022/03/05 08:56:42;;;;;;;;;1.00;1.00;;;;;;;;5097402;27;45315;-70
2022/03/05 08:59:07;;;;;;;;;1.00;1.00;;;;;;;;5098508;27;45358;-70
2022/03/05 09:01:33;;;;;;;;;1.00;1.00;;;;;;;;5088526;27;48335;-71
2022/03/05 09:03:58;;;;;;;;;1.75;1.00;;;;;;;;5089739;27;45506;-71
2022/03/05 09:06:25;;;;;;;;;1.50;0.50;;;;;;;;5092865;27;45588;-71
2022/03/05 09:08:50;;;;;;;;;0.75;0.75;;;;;;;;5097304;27;45884;-70
2022/03/05 09:11:15;;;;;;;;;2.50;2.00;;;;;;;;5098146;27;46143;-70
2022/03/05 09:13:40;;;;;;;;;1.00;1.00;;;;;;;;5097012;27;45268;-71
2022/03/05 09:16:05;;;;;;;;;2.00;1.00;;;;;;;;5099560;27;45578;-70
2022/03/05 09:18:31;;;;;;;;;2.00;1.25;;;;;;;;5096923;27;45355;-71
2022/03/05 09:20:56;;;;;;;;;0.25;0.25;;;;;;;;5096750;27;46459;-70
2022/03/05 09:23:22;;;;;;;;;1.00;1.00;;;;;;;;5097490;27;45241;-71
2022/03/05 09:25:47;;;;;;;;;0.75;0.75;;;;;;;;5096879;27;45474;-71
2022/03/05 09:28:12;;;;;;;;;1.00;1.00;;;;;;;;5096880;27;45408;-70
2022/03/05 09:30:37;;;;;;;;;1.00;1.00;;;;;;;;5096091;27;47136;-70
2022/03/05 09:33:02;;;;;;;;;2.00;1.75;;;;;;;;5097431;27;45496;-70
2022/03/05 09:35:28;;;;;;;;;0.67;0.67;;;;;;;;5097476;27;45165;-70
2022/03/05 09:37:53;;;;;;;;;1.00;1.00;;;;;;;;5085956;27;45413;-70
2022/03/05 09:40:20;;;;;;;;;0.75;0.75;;;;;;;;5097013;27;45539;-70
2022/03/05 09:42:45;;;;;;;;;1.00;1.00;;;;;;;;5096116;27;45264;-70
2022/03/05 09:45:11;;;;;;;;;0.00;0.00;;;;;;;;5096733;27;45326;-70
2022/03/05 09:47:37;;;;;;;;;0.25;0.00;;;;;;;;5096989;27;45517;-70
2022/03/05 09:50:05;;;;;;;;;0.50;0.50;;;;;;;;5096700;27;45422;-71
2022/03/05 09:52:30;;;;;;;;;1.00;1.00;;;;;;;;5095981;27;45563;-71
2022/03/05 09:54:55;;;;;;;;;0.00;0.00;;;;;;;;5096351;27;45457;-71
2022/03/05 09:57:21;;;;;;;;;1.00;1.00;;;;;;;;5096620;27;45255;-70
2022/03/05 09:59:46;;;;;;;;;1.00;1.00;;;;;;;;5095718;27;47033;-71
2022/03/05 10:02:11;;;;;;;;;1.00;1.00;;;;;;;;5100208;27;45485;-71
2022/03/05 10:04:39;;;;;;;;;0.50;0.50;;;;;;;;5095617;27;45420;-71
2022/03/05 10:07:15;;;;;;;;;1.00;1.00;;;;;;;;5096235;27;45476;-70
2022/03/05 10:09:41;;;;;;;;;0.00;0.00;;;;;;;;5095758;27;46278;-70
2022/03/05 10:12:25;;;;;;;;;0.50;0.50;;;;;;;;5096267;27;45405;-70
2022/03/05 10:15:11;;;;;;;;;0.00;0.00;;;;;;;;5095886;27;45350;-71
2022/03/05 10:17:54;;;;;;;;;1.00;1.00;;;;;;;;5092622;27;45304;-70
2022/03/05 10:20:21;;;;;;;;;2.00;2.00;;;;;;;;5097100;27;46199;-71
2022/03/05 10:22:57;;;;;;;;;0.75;0.50;;;;;;;;5096144;27;45405;-70
2022/03/05 10:25:29;;;;;;;;;0.00;0.00;;;;;;;;5079143;27;50229;-70
2022/03/05 10:27:59;;;;;;;;;2.00;0.75;;;;;;;;5095820;27;45526;-70
2022/03/05 10:30:28;;;;;;;;;0.00;0.00;;;;;;;;5095299;27;46350;-70
2022/03/05 10:32:53;;;;;;;;;0.00;0.00;;;;;;;;5095591;27;46432;-71
2022/03/05 10:35:18;;;;;;;;;0.00;0.00;;;;;;;;5096707;27;45459;-70
2022/03/05 10:37:49;;;;;;;;;0.00;0.00;;;;;;;;5096215;27;45539;-70
2022/03/05 10:40:14;;;;;;;;;1.00;1.00;;;;;;;;5090314;27;46392;-70
2022/03/05 10:42:46;;;;;;;;;0.00;0.00;;;;;;;;5094835;27;45587;-71
2022/03/05 10:45:12;;;;;;;;;0.00;0.00;;;;;;;;5095411;27;45433;-70
2022/03/05 10:47:40;;;;;;;;;0.00;0.00;;;;;;;;5095208;27;45328;-70
2022/03/05 10:50:07;;;;;;;;;1.00;1.00;;;;;;;;5096140;27;45413;-70
2022/03/05 10:52:52;;;;;;;;;0.00;0.00;;;;;;;;5095551;27;45451;-70
2022/03/05 10:55:27;;;;;;;;;1.00;1.00;;;;;;;;5095691;27;45415;-70
2022/03/05 10:57:58;;;;;;;;;0.00;0.00;;;;;;;;5095684;27;45288;-71
2022/03/05 11:00:23;;;;;;;;;0.00;0.00;;;;;;;;5095602;27;47408;-71
2022/03/05 11:02:52;;;;;;;;;1.00;0.00;;;;;;;;5095436;27;45314;-70
2022/03/05 11:05:20;;;;;;;;;0.00;0.00;;;;;;;;5096298;27;45339;-71
2022/03/05 11:07:47;;;;;;;;;0.75;0.75;;;;;;;;5097931;27;45374;-70
2022/03/05 11:10:13;;;;;;;;;0.00;0.00;;;;;;;;5100763;27;48701;-70
2022/03/05 11:12:39;;;;;;;;;0.75;0.75;;;;;;;;5098827;27;45770;-70
2022/03/05 11:15:06;;;;;;;;;0.00;0.00;;;;;;;;5101865;27;45230;-71
2022/03/05 11:17:31;;;;;;;;;0.00;0.00;;;;;;;;5102224;27;45515;-71
2022/03/05 11:19:57;;;;;;;;;1.00;1.00;;;;;;;;5102641;27;46126;-70
2022/03/05 11:22:22;;;;;;;;;0.50;0.00;;;;;;;;5093597;27;45343;-70
2022/03/05 11:24:47;;;;;;;;;0.00;0.00;;;;;;;;5092680;27;45387;-70
2022/03/05 11:27:13;;;;;;;;;0.00;0.00;;;;;;;;5102143;27;45294;-69
2022/03/05 11:29:58;;;;;;;;;0.50;0.50;;;;;;;;5101919;27;45781;-70
2022/03/05 11:32:30;;;;;;;;;0.50;0.50;;;;;;;;5102903;27;45350;-70
2022/03/05 11:34:55;;;;;;;;;0.00;0.00;;;;;;;;5111389;27;45377;-70
2022/03/05 11:37:24;;;;;;;;;0.25;0.25;;;;;;;;5105912;27;45435;-71
2022/03/05 11:39:50;;;;;;;;;0.00;0.00;;;;;;;;5102050;27;46104;-70
2022/03/05 11:42:28;;;;;;;;;0.00;0.00;;;;;;;;5101911;27;45451;-71
2022/03/05 11:44:53;;;;;;;;;0.00;0.00;;;;;;;;5089514;27;45422;-70
2022/03/05 11:47:19;;;;;;;;;0.00;0.00;;;;;;;;5102529;27;45421;-70
2022/03/05 11:49:59;;;;;;;;;1.25;0.00;;;;;;;;5101344;27;46261;-71
2022/03/05 11:52:36;;;;;;;;;0.00;0.00;;;;;;;;5101579;27;45330;-70
2022/03/05 11:55:10;;;;;;;;;1.00;1.00;;;;;;;;5101447;27;45399;-71
2022/03/05 11:57:35;;;;;;;;;0.25;0.25;;;;;;;;5096503;27;45500;-70
2022/03/05 12:00:03;;;;;;;;;0.50;0.50;;;;;;;;5100544;27;45307;-71
2022/03/05 12:02:39;;;;;;;;;0.00;0.00;;;;;;;;5104676;27;45503;-71
2022/03/05 12:05:04;;;;;;;;;0.00;0.00;;;;;;;;5107765;27;45307;-70
2022/03/05 12:07:36;;;;;;;;;0.00;0.00;;;;;;;;5092974;27;45536;-71
2022/03/05 12:10:10;;;;;;;;;0.00;0.00;;;;;;;;5093935;27;46277;-71
2022/03/05 12:12:50;;;;;;;;;0.00;0.00;;;;;;;;5101013;27;45350;-70
2022/03/05 12:15:15;;;;;;;;;1.00;1.00;;;;;;;;5101530;27;45394;-70
2022/03/05 12:17:42;;;;;;;;;0.00;0.00;;;;;;;;5101883;27;45314;-71
2022/03/05 12:20:09;;;;;;;;;0.00;0.00;;;;;;;;5104389;27;45936;-70
2022/03/05 12:22:34;;;;;;;;;1.00;0.50;;;;;;;;5103700;27;46582;-71
2022/03/05 12:24:59;;;;;;;;;0.00;0.00;;;;;;;;5096561;27;45361;-70
2022/03/05 12:27:27;;;;;;;;;0.75;0.75;;;;;;;;5097669;27;45594;-70
2022/03/05 12:29:53;;;;;;;;;0.00;0.00;;;;;;;;5098035;27;46248;-71
2022/03/05 12:32:19;;;;;;;;;1.00;1.00;;;;;;;;5098435;27;45409;-70
2022/03/05 12:34:45;;;;;;;;;0.25;0.25;;;;;;;;5098068;27;45308;-70
2022/03/05 12:37:10;;;;;;;;;0.00;0.00;;;;;;;;5097403;27;45498;-70
2022/03/05 12:39:42;;;;;;;;;0.00;0.00;;;;;;;;5097792;27;46269;-70
2022/03/05 12:42:07;;;;;;;;;1.00;0.25;;;;;;;;5097192;27;45375;-71
2022/03/05 12:44:34;;;;;;;;;0.00;0.00;;;;;;;;5098007;27;45381;-70
2022/03/05 12:46:59;;;;;;;;;0.00;0.00;;;;;;;;5098529;27;45525;-70
2022/03/05 12:49:24;;;;;;;;;2.00;0.75;;;;;;;;5098247;27;47216;-71
2022/03/05 12:51:49;;;;;;;;;0.50;0.50;;;;;;;;5097784;27;45486;-71
2022/03/05 12:54:15;;;;;;;;;1.00;1.00;;;;;;;;5097432;27;45563;-71
2022/03/05 12:56:40;;;;;;;;;0.00;0.00;;;;;;;;5097260;27;45419;-70
2022/03/05 12:59:06;;;;;;;;;0.00;0.00;;;;;;;;5097813;27;45961;-72
2022/03/05 13:01:31;;;;;;;;;0.50;0.00;;;;;;;;5099694;27;45416;-71
2022/03/05 13:03:57;;;;;;;;;1.00;1.00;;;;;;;;5093499;27;45388;-73
2022/03/05 13:06:22;;;;;;;;;0.25;0.25;;;;;;;;5084729;27;45358;-71
2022/03/05 13:08:47;;;;;;;;;0.00;0.00;;;;;;;;5106040;27;45300;-70
2022/03/05 13:11:23;;;;;;;;;0.00;0.00;;;;;;;;5097887;27;45196;-71
2022/03/05 13:13:49;;;;;;;;;0.00;0.00;;;;;;;;5097324;27;45694;-70
2022/03/05 13:16:34;;;;;;;;;0.00;0.00;;;;;;;;5096948;27;45436;-70
2022/03/05 13:19:06;;;;;;;;;0.00;0.00;;;;;;;;5096657;27;46372;-71
2022/03/05 13:21:42;;;;;;;;;0.00;0.00;;;;;;;;5085206;27;45319;-71
2022/03/05 13:24:08;;;;;;;;;0.75;0.75;;;;;;;;5097255;27;45269;-71
2022/03/05 13:26:41;;;;;;;;;0.00;0.00;;;;;;;;5096813;27;45378;-71
2022/03/05 13:29:07;;;;;;;;;0.00;0.00;;;;;;;;5097122;27;46127;-70
2022/03/05 13:31:33;;;;;;;;;0.00;0.00;;;;;;;;5096021;27;45466;-70
2022/03/05 13:33:58;;;;;;;;;0.00;0.00;;;;;;;;5096671;27;48649;-71
2022/03/05 13:36:29;;;;;;;;;0.50;0.50;;;;;;;;5096721;27;45483;-71
2022/03/05 13:39:13;;;;;;;;;0.00;0.00;;;;;;;;5096851;27;45327;-70
2022/03/05 13:41:40;;;;;;;;;0.00;0.00;;;;;;;;5093408;27;45629;-71
2022/03/05 13:44:16;;;;;;;;;0.00;0.00;;;;;;;;5103453;27;45524;-71
2022/03/05 13:46:42;;;;;;;;;1.00;0.50;;;;;;;;5097347;27;45370;-70
2022/03/05 13:49:07;;;;;;;;;0.00;0.00;;;;;;;;5096089;27;45268;-70
2022/03/05 13:51:33;;;;;;;;;0.00;0.00;;;;;;;;5095821;27;45410;-70
2022/03/05 13:54:05;;;;;;;;;0.00;0.00;;;;;;;;5098414;27;45408;-70
2022/03/05 13:56:40;;;;;;;;;0.00;0.00;;;;;;;;5095761;27;45547;-71
2022/03/05 13:59:06;;;;;;;;;0.75;0.75;;;;;;;;5096150;27;46241;-70
2022/03/05 14:01:35;;;;;;;;;0.00;0.00;;;;;;;;5095341;27;45491;-69
2022/03/05 14:04:17;;;;;;;;;0.00;0.00;;;;;;;;5095487;27;45517;-70
2022/03/05 14:06:45;;;;;;;;;0.00;0.00;;;;;;;;5094659;27;45501;-72
2022/03/05 14:09:10;;;;;;;;;0.00;0.00;;;;;;;;5094866;27;47102;-71
2022/03/05 14:11:35;;;;;;;;;0.75;0.00;;;;;;;;5095405;27;45373;-71
2022/03/05 14:14:00;;;;;;;;;0.00;0.00;;;;;;;;5096369;27;45411;-72
2022/03/05 14:16:32;;;;;;;;;0.00;0.00;;;;;;;;5097869;27;45323;-71
2022/03/05 14:18:57;;;;;;;;;0.00;0.00;;;;;;;;5095468;27;46396;-69
2022/03/05 14:21:22;;;;;;;;;0.00;0.00;;;;;;;;5094899;27;45469;-70
2022/03/05 14:23:49;;;;;;;;;0.00;0.00;;;;;;;;5094692;27;45296;-69
2022/03/05 14:26:17;;;;;;;;;1.25;0.00;;;;;;;;5096012;27;45441;-70
2022/03/05 14:28:42;;;;;;;;;0.00;0.00;;;;;;;;5095673;27;46368;-71
2022/03/05 14:31:09;;;;;;;;;0.00;0.00;;;;;;;;5094446;27;45555;-70
2022/03/05 14:33:34;;;;;;;;;0.00;0.00;;;;;;;;5096492;27;46328;-71
2022/03/05 14:35:59;;;;;;;;;0.00;0.00;;;;;;;;5094512;27;45441;-72
2022/03/05 14:38:24;;;;;;;;;0.00;0.00;;;;;;;;5095271;27;47116;-72
2022/03/05 14:40:49;;;;;;;;;0.00;0.00;;;;;;;;5096620;27;45674;-72